Time;durP1;ratioP1;P1;durP2;ratioP2;P2;SDS_P1;SDS_P2;PMS_P1;PMS_P2;Temp;Humidity;BMP_temperature;BMP_pressure;BME280_temperature;BME280_humidity;BME280_pressure;Samples;Min_cycle;Max_cycle;Signal;HPM_P1;HPM_P2
2022/03/06 00:02:38;;;;;;;14.13;9.18;;;5.40;89.90;;;;;;1924340;73;21080;-87
2022/03/06 00:05:30;;;;;;;16.62;10.30;;;5.30;90.60;;;;;;1917933;73;21216;-87
2022/03/06 00:11:08;;;;;;;16.60;10.23;;;5.10;91.20;;;;;;1942739;72;22093;-88
2022/03/06 00:14:20;;;;;;;14.33;10.20;;;5.10;92.00;;;;;;1908579;73;21091;-89
2022/03/06 00:17:11;;;;;;;13.18;9.80;;;5.10;92.10;;;;;;1910924;74;21322;-87
2022/03/06 00:20:08;;;;;;;17.25;10.53;;;5.20;92.30;;;;;;1929858;73;21156;-88
2022/03/06 00:22:57;;;;;;;14.45;10.15;;;5.20;92.70;;;;;;1912817;74;21606;-87
2022/03/06 00:25:49;;;;;;;17.32;10.65;;;5.10;92.70;;;;;;1905289;73;21152;-88
2022/03/06 00:28:40;;;;;;;17.77;10.10;;;5.10;92.70;;;;;;1917649;73;21208;-87
2022/03/06 00:31:32;;;;;;;17.12;10.78;;;5.10;93.10;;;;;;1927409;74;21213;-87
2022/03/06 00:37:04;;;;;;;16.25;10.65;;;5.10;93.60;;;;;;1946049;72;22188;-87
2022/03/06 00:40:14;;;;;;;14.70;10.50;;;5.20;93.80;;;;;;1906735;75;21164;-86
2022/03/06 00:43:06;;;;;;;17.48;11.05;;;5.20;94.10;;;;;;1913711;74;21087;-88
2022/03/06 00:48:41;;;;;;;14.85;10.30;;;4.90;95.70;;;;;;1931891;72;22241;-87
2022/03/06 00:54:30;;;;;;;15.43;11.30;;;4.90;97.20;;;;;;1947478;72;22141;-87
2022/03/06 00:57:40;;;;;;;15.70;10.45;;;4.80;97.90;;;;;;1842942;76;21107;-87
2022/03/06 01:00:34;;;;;;;16.55;10.18;;;4.60;97.80;;;;;;1907905;74;21115;-87
2022/03/06 01:03:25;;;;;;;15.78;10.35;;;4.60;98.30;;;;;;1927721;74;21121;-87
2022/03/06 01:06:16;;;;;;;14.75;10.15;;;4.60;99.10;;;;;;1913132;73;21162;-87
2022/03/06 01:09:08;;;;;;;17.10;10.70;;;4.60;99.90;;;;;;1908542;73;21105;-86
2022/03/06 01:11:59;;;;;;;18.23;10.68;;;4.50;99.90;;;;;;1914573;74;21051;-88
2022/03/06 01:14:51;;;;;;;16.50;9.78;;;4.40;99.90;;;;;;1938846;74;21150;-88
2022/03/06 01:17:43;;;;;;;16.67;10.70;;;4.30;99.90;;;;;;1916259;74;21114;-88
2022/03/06 01:20:35;;;;;;;15.88;9.60;;;4.30;99.90;;;;;;1905529;75;21121;-85
2022/03/06 01:23:28;;;;;;;15.68;10.45;;;4.30;99.90;;;;;;1908113;75;21080;-85
2022/03/06 01:26:19;;;;;;;18.50;11.05;;;4.30;99.90;;;;;;1905043;73;21067;-85
2022/03/06 01:29:11;;;;;;;16.77;10.60;;;4.40;99.90;;;;;;1925343;74;21057;-85
2022/03/06 01:32:03;;;;;;;16.48;11.05;;;4.30;99.90;;;;;;1916729;74;21098;-85
2022/03/06 01:34:54;;;;;;;16.97;10.32;;;4.30;99.90;;;;;;1914209;74;21101;-84
2022/03/06 01:37:46;;;;;;;16.67;10.18;;;4.10;99.90;;;;;;1910734;73;21113;-84
2022/03/06 01:40:37;;;;;;;15.13;9.98;;;4.10;99.90;;;;;;1905413;75;21106;-84
2022/03/06 01:43:29;;;;;;;17.27;10.58;;;4.10;99.90;;;;;;1927667;74;21060;-85
2022/03/06 01:49:08;;;;;;;17.23;10.85;;;4.30;99.90;;;;;;1943687;72;22215;-85
2022/03/06 01:52:18;;;;;;;16.27;10.65;;;4.30;99.90;;;;;;1925635;74;21135;-84
2022/03/06 01:55:11;;;;;;;15.90;10.23;;;4.30;99.90;;;;;;1925341;74;21059;-84
2022/03/06 01:58:05;;;;;;;20.00;10.43;;;4.30;99.90;;;;;;1913328;73;21161;-84
2022/03/06 02:03:40;;;;;;;17.62;11.12;;;4.10;99.90;;;;;;1959381;72;22111;-85
2022/03/06 02:06:50;;;;;;;17.02;10.78;;;3.90;99.90;;;;;;1910951;73;21137;-84
2022/03/06 02:09:42;;;;;;;17.77;10.68;;;3.80;99.90;;;;;;1870043;77;21103;-84
2022/03/06 02:12:34;;;;;;;20.80;11.18;;;3.60;99.90;;;;;;1916245;73;21098;-84
2022/03/06 02:15:25;;;;;;;18.95;11.68;;;3.60;99.90;;;;;;1905466;75;21120;-84
2022/03/06 02:18:18;;;;;;;17.10;10.23;;;3.60;99.90;;;;;;1905507;75;21056;-84
2022/03/06 02:23:48;;;;;;;17.07;11.15;;;3.60;99.90;;;;;;1953062;72;22284;-85
2022/03/06 02:26:59;;;;;;;16.42;11.05;;;3.70;99.90;;;;;;1900530;73;21030;-84
2022/03/06 02:29:51;;;;;;;15.48;10.28;;;3.60;99.90;;;;;;1908388;75;21577;-85
2022/03/06 02:32:44;;;;;;;15.10;10.03;;;3.60;99.90;;;;;;1910049;75;21166;-85
2022/03/06 02:35:36;;;;;;;14.87;9.95;;;3.60;99.90;;;;;;1917770;75;21055;-84
2022/03/06 02:38:28;;;;;;;15.20;9.98;;;3.60;99.90;;;;;;1908106;73;21050;-84
2022/03/06 02:41:19;;;;;;;18.92;10.25;;;3.60;99.90;;;;;;1896240;75;21566;-84
2022/03/06 02:44:11;;;;;;;15.28;9.60;;;3.60;99.90;;;;;;1899539;75;21505;-85
2022/03/06 02:49:41;;;;;;;15.38;10.18;;;3.60;99.90;;;;;;1940727;72;22636;-85
2022/03/06 02:52:52;;;;;;;14.73;10.18;;;3.60;99.90;;;;;;1826208;77;21062;-84
2022/03/06 02:55:44;;;;;;;15.83;10.40;;;3.70;99.90;;;;;;1892962;73;21055;-85
2022/03/06 02:58:35;;;;;;;13.38;9.53;;;3.60;99.90;;;;;;1899899;73;21054;-84
2022/03/06 03:04:06;;;;;;;16.45;10.13;;;3.40;99.90;;;;;;1952664;72;22169;-84
2022/03/06 03:07:16;;;;;;;14.07;9.93;;;3.40;99.90;;;;;;1861264;76;21428;-84
2022/03/06 03:10:10;;;;;;;16.45;9.15;;;3.30;99.90;;;;;;1905337;75;21556;-87
2022/03/06 03:15:46;;;;;;;18.48;13.45;;;3.30;99.90;;;;;;1926192;72;28059;-87
2022/03/06 03:18:56;;;;;;;17.15;12.07;;;3.60;99.90;;;;;;1885890;74;21100;-87
2022/03/06 03:21:48;;;;;;;15.30;10.70;;;3.50;99.90;;;;;;1874073;75;21103;-86
2022/03/06 03:24:40;;;;;;;16.48;10.43;;;3.50;99.90;;;;;;1889948;75;21091;-86
2022/03/06 03:27:31;;;;;;;14.85;9.90;;;3.40;99.90;;;;;;1910409;73;21101;-86
2022/03/06 03:30:23;;;;;;;14.70;9.98;;;3.40;99.90;;;;;;1894989;73;21086;-87
2022/03/06 03:33:14;;;;;;;15.10;9.93;;;3.40;99.90;;;;;;1894753;75;21106;-86
2022/03/06 03:38:46;;;;;;;16.62;10.45;;;3.40;99.90;;;;;;1944191;72;22115;-87
2022/03/06 03:41:56;;;;;;;15.00;9.63;;;3.30;99.90;;;;;;1900289;75;21175;-87
2022/03/06 03:44:48;;;;;;;14.03;9.55;;;3.40;99.90;;;;;;1905367;75;21101;-87
2022/03/06 03:50:19;;;;;;;15.38;9.30;;;3.40;99.90;;;;;;1945204;72;22143;-87
2022/03/06 03:56:10;;;;;;;16.15;9.95;;;3.30;99.90;;;;;;1948812;72;22165;-88
2022/03/06 03:59:20;;;;;;;14.75;10.03;;;3.30;99.90;;;;;;1928291;74;21083;-87
2022/03/06 04:04:50;;;;;;;13.62;9.48;;;3.20;99.90;;;;;;1963802;72;22115;-88
2022/03/06 04:08:01;;;;;;;14.05;9.53;;;3.10;99.90;;;;;;1923923;73;21097;-87
2022/03/06 04:13:33;;;;;;;15.50;10.88;;;3.10;99.90;;;;;;1935419;72;22176;-85
2022/03/06 04:19:23;;;;;;;14.18;9.68;;;3.00;99.90;;;;;;1958297;72;22234;-87
2022/03/06 04:22:33;;;;;;;14.53;10.10;;;3.00;99.90;;;;;;1891395;75;21081;-86
2022/03/06 04:25:26;;;;;;;15.28;10.40;;;3.00;99.90;;;;;;1883555;73;21055;-86
2022/03/06 04:28:17;;;;;;;15.60;9.68;;;3.00;99.90;;;;;;1930949;73;21058;-86
2022/03/06 04:33:48;;;;;;;14.38;10.05;;;3.00;99.90;;;;;;1941080;72;22822;-88
2022/03/06 04:36:58;;;;;;;15.25;10.23;;;3.00;99.90;;;;;;1903180;73;21154;-87
2022/03/06 04:39:49;;;;;;;16.60;10.70;;;3.00;99.90;;;;;;1903048;74;21051;-87
2022/03/06 04:42:40;;;;;;;15.75;10.28;;;2.90;99.90;;;;;;1928664;73;21118;-87
2022/03/06 04:45:32;;;;;;;15.43;10.08;;;2.70;99.90;;;;;;1886649;74;21180;-86
2022/03/06 04:48:23;;;;;;;15.70;10.38;;;2.60;99.90;;;;;;1934533;73;21137;-86
2022/03/06 04:51:15;;;;;;;14.20;9.70;;;2.70;99.90;;;;;;1933369;73;21107;-86
2022/03/06 04:56:46;;;;;;;13.60;9.88;;;2.70;99.90;;;;;;1941353;72;22106;-87
2022/03/06 04:59:55;;;;;;;13.58;9.55;;;2.60;99.90;;;;;;1884394;75;21176;-87
2022/03/06 05:02:47;;;;;;;14.70;9.80;;;2.70;99.90;;;;;;1883647;75;21644;-87
2022/03/06 05:05:38;;;;;;;14.10;9.95;;;2.70;99.90;;;;;;1883755;75;21197;-87
2022/03/06 05:08:29;;;;;;;15.65;10.28;;;2.80;99.90;;;;;;1893823;73;21141;-87
2022/03/06 05:11:21;;;;;;;15.65;9.65;;;2.80;99.90;;;;;;1878974;75;21086;-86
2022/03/06 05:16:50;;;;;;;17.20;10.32;;;2.60;99.90;;;;;;1943207;72;22260;-87
2022/03/06 05:20:00;;;;;;;16.50;9.95;;;2.60;99.90;;;;;;1904002;75;21147;-86
2022/03/06 05:22:52;;;;;;;14.90;10.18;;;2.60;99.90;;;;;;1899537;75;21113;-86
2022/03/06 05:25:44;;;;;;;14.85;9.98;;;2.60;99.90;;;;;;1898449;73;21141;-87
2022/03/06 05:28:36;;;;;;;17.30;10.35;;;2.50;99.90;;;;;;1908672;75;21059;-87
2022/03/06 05:34:26;;;;;;;14.33;9.70;;;2.50;99.90;;;;;;1957093;72;22132;-87
2022/03/06 05:37:36;;;;;;;14.85;9.35;;;2.50;99.90;;;;;;1917791;75;21031;-87
2022/03/06 05:40:27;;;;;;;15.10;10.40;;;2.50;99.90;;;;;;1918039;73;21058;-88
2022/03/06 05:46:02;;;;;;;17.57;11.80;;;2.60;99.90;;;;;;1956319;72;22116;-87
2022/03/06 05:49:13;;;;;;;16.42;11.20;;;2.60;99.90;;;;;;1917804;74;21496;-88
2022/03/06 05:54:47;;;;;;;14.68;10.58;;;2.50;99.90;;;;;;1947983;72;22137;-87
2022/03/06 05:58:00;;;;;;;16.07;10.75;;;2.40;99.90;;;;;;1860523;76;21135;-84
2022/03/06 06:00:52;;;;;;;14.53;10.58;;;2.40;99.90;;;;;;1910270;74;21117;-84
2022/03/06 06:03:47;;;;;;;15.55;10.55;;;2.30;99.90;;;;;;1905116;75;21057;-84
2022/03/06 06:09:23;;;;;;;17.98;12.25;;;2.40;99.90;;;;;;1964475;72;22123;-87
2022/03/06 06:12:38;;;;;;;17.98;13.20;;;2.30;99.90;;;;;;1928304;74;21160;-86
2022/03/06 06:15:31;;;;;;;16.10;11.97;;;2.40;99.90;;;;;;1914213;74;21115;-87
2022/03/06 06:21:06;;;;;;;16.25;10.40;;;2.30;99.90;;;;;;1953186;72;22286;-84
2022/03/06 06:24:16;;;;;;;16.07;10.82;;;2.30;99.90;;;;;;1896388;75;21083;-85
2022/03/06 06:27:08;;;;;;;16.42;10.35;;;2.20;99.90;;;;;;1921265;73;21149;-85
2022/03/06 06:30:00;;;;;;;15.90;11.05;;;2.30;99.90;;;;;;1903792;73;21110;-84
2022/03/06 06:32:51;;;;;;;15.75;10.32;;;2.20;99.90;;;;;;1889206;75;21187;-87
2022/03/06 06:38:26;;;;;;;14.30;10.13;;;2.20;99.90;;;;;;1933534;72;22191;-85
2022/03/06 06:44:14;;;;;;;16.07;10.20;;;2.20;99.90;;;;;;1958881;72;22223;-85
2022/03/06 06:47:24;;;;;;;18.15;10.68;;;2.30;99.90;;;;;;1904197;74;21056;-85
2022/03/06 06:50:16;;;;;;;16.62;11.22;;;2.20;99.90;;;;;;1905219;75;21098;-85
2022/03/06 06:53:07;;;;;;;15.38;10.43;;;2.20;99.90;;;;;;1912069;74;21180;-84
2022/03/06 06:55:59;;;;;;;15.75;10.32;;;2.40;99.90;;;;;;1917905;73;21109;-85
2022/03/06 06:58:51;;;;;;;20.20;10.25;;;2.30;99.90;;;;;;1936734;73;21054;-84
2022/03/06 07:04:23;;;;;;;16.57;10.72;;;2.40;99.90;;;;;;1923775;72;22165;-85
2022/03/06 07:07:33;;;;;;;15.53;9.95;;;2.50;99.90;;;;;;1892421;73;21055;-84
2022/03/06 07:10:25;;;;;;;14.75;10.03;;;2.50;99.90;;;;;;1901576;74;21407;-84
2022/03/06 07:13:16;;;;;;;16.15;10.68;;;2.40;99.90;;;;;;1905837;75;21190;-84
2022/03/06 07:16:08;;;;;;;17.35;10.00;;;2.40;99.90;;;;;;1868527;76;21091;-84
2022/03/06 07:19:00;;;;;;;15.88;10.20;;;2.50;99.90;;;;;;1900158;75;21119;-84
2022/03/06 07:21:52;;;;;;;22.40;10.43;;;2.60;99.90;;;;;;1894727;75;21617;-84
2022/03/06 07:24:43;;;;;;;15.58;10.70;;;2.60;99.90;;;;;;1869266;75;21521;-84
2022/03/06 07:27:35;;;;;;;15.38;9.98;;;2.70;99.90;;;;;;1900074;73;21103;-84
2022/03/06 07:30:26;;;;;;;14.60;9.98;;;2.70;99.90;;;;;;1881853;73;21165;-84
2022/03/06 07:33:18;;;;;;;16.12;10.78;;;2.60;99.90;;;;;;1904422;73;21061;-84
2022/03/06 07:36:09;;;;;;;15.60;10.18;;;2.60;99.90;;;;;;1874719;75;21618;-84
2022/03/06 07:39:01;;;;;;;14.95;9.88;;;2.60;99.90;;;;;;1873845;75;21088;-84
2022/03/06 07:41:52;;;;;;;16.77;10.32;;;2.50;99.90;;;;;;1887663;75;21127;-84
2022/03/06 07:44:44;;;;;;;14.40;9.78;;;2.60;99.90;;;;;;1898398;75;21057;-85
2022/03/06 07:50:17;;;;;;;14.38;9.80;;;2.80;99.90;;;;;;1936191;72;22644;-85
2022/03/06 07:53:26;;;;;;;14.90;10.10;;;2.70;99.90;;;;;;1876920;75;21079;-84
2022/03/06 07:59:00;;;;;;;14.47;9.95;;;2.90;99.90;;;;;;1948856;72;22272;-85
2022/03/06 08:04:48;;;;;;;14.75;10.75;;;3.20;99.90;;;;;;1938203;72;22248;-85
2022/03/06 08:10:38;;;;;;;15.38;11.00;;;3.30;99.90;;;;;;1930681;72;22291;-84
2022/03/06 08:13:48;;;;;;;16.27;10.93;;;3.40;99.90;;;;;;1916624;74;21097;-85
2022/03/06 08:16:39;;;;;;;16.45;11.00;;;3.40;99.90;;;;;;1904934;74;21138;-84
2022/03/06 08:19:31;;;;;;;16.73;12.33;;;3.40;99.90;;;;;;1912991;75;21054;-84
2022/03/06 08:22:23;;;;;;;16.57;11.12;;;3.50;99.90;;;;;;1915373;75;21098;-84
2022/03/06 08:25:15;;;;;;;16.60;10.25;;;3.60;99.90;;;;;;1919157;74;21097;-84
2022/03/06 08:30:45;;;;;;;15.83;10.93;;;3.60;99.90;;;;;;1938760;72;22281;-85
2022/03/06 08:33:55;;;;;;;16.02;10.88;;;3.80;99.90;;;;;;1879608;75;21083;-84
2022/03/06 08:39:26;;;;;;;13.85;9.90;;;3.90;99.90;;;;;;1958300;72;22204;-85
2022/03/06 08:42:38;;;;;;;15.65;10.58;;;4.00;99.90;;;;;;1910250;74;21035;-85
2022/03/06 08:48:10;;;;;;;15.65;10.43;;;4.20;99.90;;;;;;1940654;72;22165;-85
2022/03/06 08:54:02;;;;;;;17.52;9.75;;;4.50;99.90;;;;;;1936769;72;22217;-85
2022/03/06 08:57:13;;;;;;;15.08;10.13;;;4.60;99.90;;;;;;1901205;73;21153;-85
2022/03/06 09:00:08;;;;;;;14.73;9.85;;;4.60;99.90;;;;;;1886795;75;21558;-85
2022/03/06 09:02:59;;;;;;;14.10;9.88;;;4.80;99.90;;;;;;1882438;75;21087;-85
2022/03/06 09:05:51;;;;;;;14.10;9.88;;;4.90;99.90;;;;;;1886122;75;21142;-85
2022/03/06 09:08:42;;;;;;;14.93;9.18;;;4.90;99.90;;;;;;1893499;75;21089;-85
2022/03/06 09:11:35;;;;;;;13.13;8.33;;;5.10;99.90;;;;;;1885807;73;21106;-86
2022/03/06 09:17:11;;;;;;;12.37;8.83;;;5.10;99.90;;;;;;1936319;72;22181;-86
2022/03/06 09:20:22;;;;;;;12.73;9.05;;;5.20;99.90;;;;;;1908606;75;21131;-85
2022/03/06 09:23:15;;;;;;;12.82;8.83;;;5.30;99.90;;;;;;1895065;75;21575;-84
2022/03/06 09:28:50;;;;;;;13.95;9.25;;;5.50;99.90;;;;;;1939164;72;22140;-85
2022/03/06 09:34:48;;;;;;;19.52;10.18;;;5.60;99.90;;;;;;1934661;72;22296;-85
2022/03/06 09:38:04;;;;;;;12.28;8.68;;;5.60;99.90;;;;;;1896923;75;21035;-85
2022/03/06 09:41:01;;;;;;;14.45;9.23;;;5.80;99.90;;;;;;1893842;73;21103;-81
2022/03/06 09:43:56;;;;;;;13.03;8.90;;;5.90;99.90;;;;;;1876755;75;21121;-84
2022/03/06 09:46:48;;;;;;;13.22;9.30;;;6.00;99.90;;;;;;1880254;75;21094;-75
2022/03/06 09:52:20;;;;;;;16.48;9.33;;;6.00;99.90;;;;;;1934993;72;22162;-77
2022/03/06 09:55:30;;;;;;;15.25;10.53;;;6.10;99.90;;;;;;1900225;73;21064;-76
2022/03/06 09:58:22;;;;;;;15.93;10.08;;;6.50;99.90;;;;;;1906570;74;21088;-76
2022/03/06 10:01:14;;;;;;;14.63;10.15;;;6.70;99.90;;;;;;1888657;75;21345;-76
2022/03/06 10:04:24;;;;;;;15.55;9.58;;;6.70;99.90;;;;;;1895472;75;21142;-76
2022/03/06 10:07:16;;;;;;;12.95;9.28;;;6.70;99.90;;;;;;1895429;75;21039;-76
2022/03/06 10:12:58;;;;;;;13.88;9.40;;;6.70;99.90;;;;;;1938048;72;22472;-76
2022/03/06 10:18:49;;;;;;;14.90;9.98;;;6.50;99.90;;;;;;1947210;72;22240;-79
2022/03/06 10:24:53;;;;;;;12.95;9.08;;;6.70;99.90;;;;;;1934725;72;22237;-81
2022/03/06 10:28:03;;;;;;;13.18;9.73;;;6.80;99.90;;;;;;1933881;73;21082;-79
2022/03/06 10:33:36;;;;;;;15.75;9.80;;;6.90;99.90;;;;;;1941990;72;22197;-80
2022/03/06 10:37:01;;;;;;;14.70;10.23;;;6.90;99.90;;;;;;1895399;75;21094;-80
2022/03/06 10:39:50;;;;;;;13.88;8.80;;;6.90;99.90;;;;;;1846359;77;21073;-80
2022/03/06 10:42:42;;;;;;;13.80;9.40;;;7.10;99.90;;;;;;1839166;77;21165;-80
2022/03/06 10:45:34;;;;;;;13.20;8.85;;;7.20;99.90;;;;;;1848923;77;21078;-79
2022/03/06 10:48:25;;;;;;;11.88;9.15;;;7.30;99.90;;;;;;1850038;77;21151;-80
2022/03/06 10:53:57;;;;;;;15.93;9.53;;;7.40;99.90;;;;;;1954720;72;22101;-79
2022/03/06 10:57:12;;;;;;;13.18;9.30;;;7.40;99.60;;;;;;1917286;74;21494;-81
2022/03/06 11:05:24;;;;;;;13.58;9.68;;;7.60;98.90;;;;;;1951058;72;22326;-79
2022/03/06 11:08:35;;;;;;;14.20;9.18;;;7.70;98.40;;;;;;1943989;73;21085;-79
2022/03/06 11:11:27;;;;;;;13.53;10.05;;;7.70;98.40;;;;;;1933866;73;21090;-79
2022/03/06 11:14:20;;;;;;;13.10;9.25;;;7.80;97.50;;;;;;1926774;73;21098;-81
2022/03/06 11:19:51;;;;;;;11.78;9.10;;;7.90;97.30;;;;;;1930387;72;22253;-80
2022/03/06 11:23:06;;;;;;;13.53;9.83;;;7.90;96.20;;;;;;1888495;75;21555;-80
2022/03/06 11:28:54;;;;;;;13.08;9.88;;;7.90;96.20;;;;;;1919792;72;22130;-80
2022/03/06 11:32:08;;;;;;;13.65;9.75;;;7.90;96.20;;;;;;1873196;76;21121;-80
2022/03/06 11:35:18;;;;;;;15.05;10.13;;;7.90;96.80;;;;;;1889648;75;21527;-79
2022/03/06 11:38:11;;;;;;;13.98;9.98;;;8.00;96.50;;;;;;1877434;75;21102;-79
2022/03/06 11:41:11;;;;;;;12.63;9.68;;;8.10;96.00;;;;;;1835834;78;21091;-79
2022/03/06 11:44:03;;;;;;;11.97;9.05;;;8.20;95.80;;;;;;1901088;75;21506;-81
2022/03/06 11:46:56;;;;;;;14.07;9.13;;;8.20;95.00;;;;;;1874817;75;21339;-79
2022/03/06 11:49:55;;;;;;;12.88;9.15;;;8.40;93.00;;;;;;1881329;74;21127;-80
2022/03/06 11:52:47;;;;;;;13.70;9.80;;;8.00;91.60;;;;;;1878617;75;21166;-80
2022/03/06 11:55:40;;;;;;;14.73;10.10;;;8.00;92.50;;;;;;1897584;74;21131;-80
2022/03/06 11:58:54;;;;;;;13.25;9.33;;;8.20;92.50;;;;;;1898823;75;21059;-80
2022/03/06 12:01:48;;;;;;;13.13;9.53;;;8.20;91.30;;;;;;1873181;76;21112;-79
2022/03/06 12:04:47;;;;;;;13.03;9.43;;;8.20;91.80;;;;;;1896552;75;21063;-79
2022/03/06 12:10:20;;;;;;;12.70;9.40;;;8.40;92.10;;;;;;1942449;72;22169;-80
2022/03/06 12:16:11;;;;;;;12.07;9.13;;;8.50;92.10;;;;;;1947372;72;22202;-81
2022/03/06 12:19:21;;;;;;;13.03;9.40;;;8.50;91.90;;;;;;1906491;75;21194;-80
2022/03/06 12:22:16;;;;;;;15.53;10.03;;;8.50;91.50;;;;;;1910688;73;21140;-80
2022/03/06 12:28:42;;;;;;;12.85;10.20;;;8.80;91.00;;;;;;1959043;72;22736;-79
2022/03/06 12:31:55;;;;;;;11.65;9.55;;;8.90;91.20;;;;;;1848305;77;21110;-78
2022/03/06 12:34:47;;;;;;;14.55;9.65;;;9.00;91.30;;;;;;1916714;73;21054;-78
2022/03/06 12:37:42;;;;;;;15.28;10.70;;;9.20;90.50;;;;;;1893841;75;21046;-78
2022/03/06 12:43:17;;;;;;;15.43;10.45;;;9.20;90.20;;;;;;1931318;72;22208;-79
2022/03/06 12:46:27;;;;;;;14.73;10.23;;;9.30;90.30;;;;;;1907834;75;21074;-77
2022/03/06 12:52:04;;;;;;;15.55;10.98;;;9.30;90.30;;;;;;1941401;72;20172;-78
2022/03/06 12:55:17;;;;;;;14.75;10.38;;;9.30;90.80;;;;;;1918614;73;21526;-78
2022/03/06 12:58:08;;;;;;;15.98;11.40;;;9.40;90.70;;;;;;1927141;73;21131;-78
2022/03/06 13:01:09;;;;;;;14.30;10.15;;;9.50;90.40;;;;;;1919961;73;21058;-78
2022/03/06 13:06:41;;;;;;;13.83;9.95;;;9.50;90.10;;;;;;1941242;72;22350;-79
2022/03/06 13:12:40;;;;;;;14.78;10.40;;;9.70;88.80;;;;;;1955112;72;22166;-78
2022/03/06 13:15:51;;;;;;;15.05;10.35;;;9.60;89.30;;;;;;1894736;75;21192;-78
2022/03/06 13:18:42;;;;;;;14.70;10.48;;;9.60;89.30;;;;;;1908000;75;21054;-78
2022/03/06 13:21:37;;;;;;;11.45;9.58;;;9.70;89.10;;;;;;1892979;73;21094;-78
2022/03/06 13:27:14;;;;;;;14.55;10.03;;;9.80;87.90;;;;;;1932082;72;22832;-77
2022/03/06 13:30:25;;;;;;;13.78;10.48;;;9.90;88.00;;;;;;1888017;75;21154;-78
2022/03/06 13:33:21;;;;;;;16.05;10.35;;;9.80;88.30;;;;;;1878675;75;21130;-78
2022/03/06 13:36:17;;;;;;;14.35;10.43;;;9.70;88.30;;;;;;1898181;75;21159;-77
2022/03/06 13:39:11;;;;;;;13.88;10.25;;;9.80;88.30;;;;;;1879235;75;21075;-79
2022/03/06 13:42:03;;;;;;;15.53;10.13;;;9.70;87.50;;;;;;1879104;75;21052;-77
2022/03/06 13:45:02;;;;;;;13.05;9.40;;;9.90;86.60;;;;;;1890582;75;21161;-79
2022/03/06 13:47:57;;;;;;;14.93;10.65;;;9.90;86.20;;;;;;1896107;75;21601;-77
2022/03/06 13:50:50;;;;;;;13.80;10.43;;;10.00;84.90;;;;;;1898722;73;21199;-77
2022/03/06 13:56:34;;;;;;;12.80;10.25;;;10.00;85.00;;;;;;1949203;72;22570;-78
2022/03/06 13:59:44;;;;;;;12.95;9.98;;;10.10;84.60;;;;;;1923930;73;21158;-78
2022/03/06 14:02:35;;;;;;;13.50;10.10;;;10.10;84.50;;;;;;1917504;75;21146;-78
2022/03/06 14:05:30;;;;;;;15.35;10.75;;;10.00;84.80;;;;;;1944920;73;21128;-77
2022/03/06 14:08:25;;;;;;;13.72;10.08;;;9.90;83.50;;;;;;1927694;73;21027;-78
2022/03/06 14:14:03;;;;;;;14.35;10.08;;;10.10;82.70;;;;;;1952178;72;22134;-78
2022/03/06 14:17:16;;;;;;;13.38;10.28;;;10.20;81.80;;;;;;1901984;73;21075;-78
2022/03/06 14:20:09;;;;;;;13.08;8.80;;;10.20;81.80;;;;;;1929016;73;21554;-78
2022/03/06 14:23:02;;;;;;;14.03;10.20;;;10.20;82.70;;;;;;1891790;73;21113;-77
2022/03/06 14:25:53;;;;;;;14.00;9.93;;;10.10;80.00;;;;;;1917328;73;21158;-76
2022/03/06 14:31:39;;;;;;;13.62;9.83;;;10.20;79.80;;;;;;1938598;72;22166;-77
2022/03/06 14:34:48;;;;;;;14.05;9.73;;;10.30;78.70;;;;;;1891377;75;21634;-80
2022/03/06 14:37:40;;;;;;;12.43;9.75;;;11.10;78.00;;;;;;1906479;75;21590;-77
2022/03/06 14:43:13;;;;;;;13.68;10.10;;;11.60;75.20;;;;;;1945680;72;22621;-78
2022/03/06 14:46:23;;;;;;;14.28;9.48;;;11.80;74.80;;;;;;1908291;75;21047;-77
2022/03/06 14:49:15;;;;;;;13.90;9.58;;;12.30;72.80;;;;;;1889393;75;21102;-78
2022/03/06 14:52:07;;;;;;;14.18;9.85;;;12.30;72.10;;;;;;1903402;73;21051;-77
2022/03/06 14:54:58;;;;;;;12.47;10.00;;;12.30;71.60;;;;;;1911945;75;21114;-77
2022/03/06 14:57:49;;;;;;;14.68;9.55;;;12.40;71.50;;;;;;1933793;73;21063;-78
2022/03/06 15:00:41;;;;;;;14.10;10.82;;;11.90;71.10;;;;;;1909845;75;21533;-77
2022/03/06 15:06:14;;;;;;;13.68;10.75;;;10.70;73.50;;;;;;1975183;72;22264;-78
2022/03/06 15:09:25;;;;;;;13.80;9.88;;;10.50;74.60;;;;;;1932963;73;21089;-77
2022/03/06 15:12:19;;;;;;;13.75;10.10;;;10.40;75.60;;;;;;1928407;73;21089;-77
2022/03/06 15:15:11;;;;;;;11.95;9.33;;;10.30;75.10;;;;;;1928252;73;21179;-77
2022/03/06 15:18:02;;;;;;;13.53;10.10;;;10.20;75.10;;;;;;1917517;75;21076;-77
2022/03/06 15:20:54;;;;;;;12.75;9.65;;;10.00;75.80;;;;;;1934476;73;21110;-78
2022/03/06 15:23:46;;;;;;;20.15;10.80;;;10.00;76.50;;;;;;1942494;73;21102;-78
2022/03/06 15:26:38;;;;;;;13.15;9.93;;;10.10;76.60;;;;;;1918479;73;21060;-78
2022/03/06 15:32:10;;;;;;;12.28;9.78;;;10.20;76.30;;;;;;1958141;72;22209;-79
2022/03/06 15:35:20;;;;;;;12.00;9.70;;;10.20;76.70;;;;;;1916110;74;21160;-81
2022/03/06 15:38:11;;;;;;;12.07;9.63;;;10.40;76.60;;;;;;1902609;75;21163;-79
2022/03/06 15:41:03;;;;;;;13.85;10.35;;;10.90;75.90;;;;;;1916312;75;21096;-79
2022/03/06 15:43:54;;;;;;;12.90;9.68;;;11.80;74.60;;;;;;1910011;75;21113;-79
2022/03/06 15:46:46;;;;;;;15.70;10.10;;;12.10;72.50;;;;;;1906672;75;21199;-79
2022/03/06 15:49:38;;;;;;;13.55;9.80;;;12.10;71.30;;;;;;1903607;75;21059;-79
2022/03/06 15:52:30;;;;;;;11.97;9.68;;;12.50;70.70;;;;;;1904401;73;21043;-80
2022/03/06 15:55:22;;;;;;;14.63;9.75;;;12.40;70.60;;;;;;1915856;73;21115;-78
2022/03/06 15:58:14;;;;;;;12.73;9.68;;;12.50;69.60;;;;;;1929098;73;21501;-81
2022/03/06 16:01:06;;;;;;;13.25;9.55;;;12.50;69.50;;;;;;1906138;75;21051;-80
2022/03/06 16:06:38;;;;;;;12.75;9.70;;;12.30;68.60;;;;;;1945339;72;22190;-80
2022/03/06 16:09:48;;;;;;;11.88;9.03;;;12.30;68.60;;;;;;1902620;75;21106;-81
2022/03/06 16:12:41;;;;;;;13.05;9.30;;;11.90;68.80;;;;;;1895047;75;21114;-80
2022/03/06 16:18:13;;;;;;;12.93;9.55;;;11.80;68.70;;;;;;1964447;72;22670;-78
2022/03/06 16:21:24;;;;;;;12.65;9.75;;;11.90;68.30;;;;;;1928185;73;21588;-80
2022/03/06 16:24:16;;;;;;;13.72;9.23;;;11.70;68.10;;;;;;1924665;73;21142;-81
2022/03/06 16:27:07;;;;;;;12.40;9.28;;;11.60;67.70;;;;;;1917040;73;21157;-79
2022/03/06 16:30:01;;;;;;;12.45;9.20;;;11.50;68.40;;;;;;1920976;73;21486;-79
2022/03/06 16:32:52;;;;;;;12.82;8.95;;;11.30;68.60;;;;;;1917465;75;21105;-80
2022/03/06 16:38:25;;;;;;;11.50;9.28;;;10.60;69.70;;;;;;1954105;72;22122;-81
2022/03/06 16:44:15;;;;;;;15.05;9.70;;;9.90;72.30;;;;;;1945472;72;22225;-80
2022/03/06 16:47:28;;;;;;;13.18;8.78;;;9.70;72.80;;;;;;1910048;75;21062;-78
2022/03/06 16:50:20;;;;;;;13.58;9.58;;;9.50;73.90;;;;;;1895482;75;21055;-78
2022/03/06 16:55:51;;;;;;;12.45;8.53;;;9.10;75.10;;;;;;1935934;72;22711;-78
2022/03/06 17:01:41;;;;;;;14.65;8.90;;;9.00;75.60;;;;;;1947885;72;22233;-78
2022/03/06 17:04:51;;;;;;;13.88;9.48;;;9.00;75.60;;;;;;1908036;74;21062;-78
2022/03/06 17:07:42;;;;;;;13.10;9.50;;;9.10;75.70;;;;;;1895593;75;21130;-77
2022/03/06 17:10:34;;;;;;;14.78;9.18;;;8.90;76.60;;;;;;1900327;75;21112;-78
2022/03/06 17:13:26;;;;;;;12.78;8.65;;;8.90;76.40;;;;;;1896869;75;21054;-78
2022/03/06 17:16:18;;;;;;;13.68;9.03;;;8.70;76.50;;;;;;1906700;75;21215;-78
2022/03/06 17:19:10;;;;;;;15.98;8.60;;;8.70;77.50;;;;;;1908632;75;21211;-78
2022/03/06 17:22:01;;;;;;;12.78;9.05;;;8.70;77.60;;;;;;1899256;75;21059;-78
2022/03/06 17:24:53;;;;;;;11.20;7.67;;;8.60;76.40;;;;;;1903363;73;21648;-77
2022/03/06 17:27:44;;;;;;;10.95;7.80;;;8.60;75.70;;;;;;1934304;73;21670;-77
2022/03/06 17:33:15;;;;;;;12.88;8.55;;;8.50;75.10;;;;;;1954964;72;22261;-78
2022/03/06 17:39:04;;;;;;;11.05;7.95;;;8.40;76.60;;;;;;1944119;72;22264;-79
2022/03/06 17:42:14;;;;;;;12.58;8.40;;;8.40;75.70;;;;;;1928764;73;21512;-78
2022/03/06 17:45:06;;;;;;;12.43;8.10;;;8.40;75.70;;;;;;1932800;73;21154;-79
2022/03/06 17:47:58;;;;;;;10.88;8.23;;;8.40;75.90;;;;;;1930888;73;21576;-79
2022/03/06 17:50:49;;;;;;;12.03;7.85;;;8.30;75.70;;;;;;1919126;73;21584;-79
2022/03/06 17:56:24;;;;;;;11.40;8.13;;;8.10;76.10;;;;;;1942302;72;22194;-78
2022/03/06 17:59:34;;;;;;;11.70;8.08;;;8.10;76.30;;;;;;1917476;75;21166;-77
2022/03/06 18:02:26;;;;;;;10.15;6.65;;;8.00;76.50;;;;;;1925544;73;21051;-78
2022/03/06 18:05:18;;;;;;;12.70;7.55;;;8.00;76.50;;;;;;1881779;75;21087;-77
2022/03/06 18:08:10;;;;;;;11.93;7.80;;;8.00;76.40;;;;;;1919871;74;21138;-77
2022/03/06 18:11:03;;;;;;;14.90;8.40;;;8.00;76.30;;;;;;1940034;73;21106;-76
2022/03/06 18:16:34;;;;;;;12.40;8.23;;;8.00;75.80;;;;;;1946685;72;22624;-78
2022/03/06 18:19:44;;;;;;;13.48;8.23;;;7.90;76.30;;;;;;1839762;77;21229;-78
2022/03/06 18:22:38;;;;;;;12.30;8.53;;;7.90;76.50;;;;;;1849850;77;21140;-79
2022/03/06 18:25:30;;;;;;;11.50;7.78;;;7.90;76.70;;;;;;1888556;73;21143;-78
2022/03/06 18:28:21;;;;;;;11.08;8.28;;;7.90;76.60;;;;;;1883786;74;21236;-78